Main page
METAR-TAF:

METAR-TAF

Airports :

Tabas Airport

Tabas, Iran

latitude: 33-36N, longitude: 056-55E, elevation: 710 m

Current weather observation

The report was made 20 hours and 42 minutes ago, at 05:00 UTC
Wind 4 kt from the South
Temperature 35°C
Humidity 14%
Pressure 1004 hPa
Visibility 10 km or more
Few clouds at a height of 4500 ft

METAR: OIMT 190500Z 19004KT 9999 FEW045 35/04 Q1004

Time: 06:12 (01:42 UTC)


TAF: missing

Weather observations and forecasts of more than 4000 airports (METAR and TAF reports).

The available stations are represented by yellow and red dots on the map.

Hover mouse over dot to see the name of the station.

Then click to see weather observations and forecasts.

To change the map : click on the green buttons with a black cross to zoom in, on the green button with a dash to zoom out, or on the green arrows for adjacent maps.


METAR-TAF: